Time;durP1;ratioP1;P1;durP2;ratioP2;P2;SDS_P1;SDS_P2;PMS_P1;PMS_P2;Temp;Humidity;BMP_temperature;BMP_pressure;BME280_temperature;BME280_humidity;BME280_pressure;Samples;Min_cycle;Max_cycle;Signal;HPM_P1;HPM_P2
2022/01/30 00:01:35;;;;;;;17.08;3.63;;;;;;;;;;4785095;29;20047;-66
2022/01/30 00:04:01;;;;;;;24.75;3.35;;;;;;;;;;4783088;29;20901;-66
2022/01/30 00:06:27;;;;;;;16.75;3.70;;;;;;;;;;4784589;29;20565;-66
2022/01/30 00:08:53;;;;;;;18.05;3.50;;;;;;;;;;4785322;29;20043;-66
2022/01/30 00:11:23;;;;;;;16.65;3.30;;;;;;;;;;4784396;29;20044;-66
2022/01/30 00:13:50;;;;;;;16.65;2.92;;;;;;;;;;4782962;29;20152;-66
2022/01/30 00:16:19;;;;;;;19.92;3.60;;;;;;;;;;4783311;29;20101;-65
2022/01/30 00:23:59;;;;;;;22.67;3.90;;;;;;;;;;4784952;29;20058;-66
2022/01/30 00:26:29;;;;;;;24.52;3.65;;;;;;;;;;4782975;29;20489;-65
2022/01/30 00:28:56;;;;;;;23.02;4.68;;;;;;;;;;4784805;29;20395;-66
2022/01/30 00:31:24;;;;;;;22.00;4.05;;;;;;;;;;4783908;29;20059;-65
2022/01/30 00:33:50;;;;;;;23.63;3.85;;;;;;;;;;4783971;29;20091;-66
2022/01/30 00:36:16;;;;;;;29.75;3.53;;;;;;;;;;4784419;29;20047;-66
2022/01/30 00:38:42;;;;;;;21.13;4.30;;;;;;;;;;4784677;29;20043;-66
2022/01/30 00:41:08;;;;;;;23.90;4.13;;;;;;;;;;4783720;29;20144;-66
2022/01/30 00:43:34;;;;;;;21.55;3.28;;;;;;;;;;4783150;29;20144;-66
2022/01/30 00:46:01;;;;;;;20.17;3.45;;;;;;;;;;4782789;29;20055;-66
2022/01/30 00:48:27;;;;;;;31.55;3.80;;;;;;;;;;4784648;29;20046;-66
2022/01/30 00:50:53;;;;;;;18.70;2.78;;;;;;;;;;4783603;29;20032;-65
2022/01/30 00:53:19;;;;;;;18.98;3.40;;;;;;;;;;4767148;29;20070;-66
2022/01/30 00:55:45;;;;;;;22.52;3.55;;;;;;;;;;4783649;29;20090;-66
2022/01/30 00:58:11;;;;;;;24.10;3.17;;;;;;;;;;4784025;29;20047;-66
2022/01/30 01:00:37;;;;;;;20.92;4.40;;;;;;;;;;4783347;29;20078;-66
2022/01/30 01:03:03;;;;;;;21.30;4.18;;;;;;;;;;4783127;29;20504;-66
2022/01/30 01:05:31;;;;;;;19.60;3.45;;;;;;;;;;4782860;29;20059;-66
2022/01/30 01:08:00;;;;;;;21.60;3.78;;;;;;;;;;4784101;29;20047;-66
2022/01/30 01:23:42;;;;;;;13.45;2.85;;;;;;;;;;4783660;29;20377;-66
2022/01/30 01:26:08;;;;;;;10.40;2.38;;;;;;;;;;4783470;29;20108;-66
2022/01/30 01:28:34;;;;;;;14.75;2.55;;;;;;;;;;4782408;29;20210;-66
2022/01/30 01:31:00;;;;;;;17.13;2.53;;;;;;;;;;4783363;29;20059;-66
2022/01/30 01:33:36;;;;;;;9.13;2.28;;;;;;;;;;4782602;29;20043;-66
2022/01/30 01:36:02;;;;;;;13.95;2.40;;;;;;;;;;4782109;29;20122;-66
2022/01/30 01:38:28;;;;;;;17.60;2.80;;;;;;;;;;4784296;29;20051;-66
2022/01/30 01:40:55;;;;;;;15.63;2.92;;;;;;;;;;4784026;29;20469;-66
2022/01/30 01:43:23;;;;;;;16.17;2.90;;;;;;;;;;4783666;29;20039;-66
2022/01/30 01:45:51;;;;;;;18.45;3.08;;;;;;;;;;4782504;29;20058;-66
2022/01/30 01:48:17;;;;;;;19.23;2.67;;;;;;;;;;4782431;29;20054;-66
2022/01/30 01:50:50;;;;;;;16.30;2.97;;;;;;;;;;4783453;29;20035;-66
2022/01/30 01:53:16;;;;;;;17.90;2.75;;;;;;;;;;4783575;29;20162;-66
2022/01/30 01:55:43;;;;;;;18.48;3.97;;;;;;;;;;4783315;29;20054;-66
2022/01/30 01:58:09;;;;;;;17.13;2.90;;;;;;;;;;4785930;29;20073;-67
2022/01/30 02:00:36;;;;;;;16.70;2.60;;;;;;;;;;4786511;29;20043;-66
2022/01/30 02:03:03;;;;;;;18.15;3.50;;;;;;;;;;4784809;29;20047;-66
2022/01/30 02:05:32;;;;;;;18.35;2.75;;;;;;;;;;4787352;29;20058;-66
2022/01/30 02:10:35;;;;;;;22.55;3.63;;;;;;;;;;4785027;29;20465;-66
2022/01/30 02:24:13;;;;;;;16.80;3.72;;;;;;;;;;4783928;29;20059;-66
2022/01/30 02:26:42;;;;;;;27.52;3.97;;;;;;;;;;4786021;29;20489;-66
2022/01/30 02:29:08;;;;;;;21.23;3.65;;;;;;;;;;4785795;29;20518;-66
2022/01/30 02:31:38;;;;;;;21.75;3.55;;;;;;;;;;4783738;29;20051;-66
2022/01/30 02:34:04;;;;;;;18.63;3.15;;;;;;;;;;4784937;29;20112;-66
2022/01/30 02:36:30;;;;;;;15.30;2.88;;;;;;;;;;4785823;29;20047;-66
2022/01/30 02:39:00;;;;;;;24.42;4.78;;;;;;;;;;4786200;29;20043;-66
2022/01/30 02:41:27;;;;;;;26.10;4.47;;;;;;;;;;4785631;29;20043;-65
2022/01/30 02:44:33;;;;;;;18.52;3.20;;;;;;;;;;4769102;29;20055;-66
2022/01/30 02:46:48;;;;;;;19.83;3.20;;;;;;;;;;4779273;29;20062;-66
2022/01/30 02:51:49;;;;;;;23.88;3.53;;;;;;;;;;4784635;29;20134;-66
2022/01/30 02:54:15;;;;;;;18.92;3.55;;;;;;;;;;4769434;29;20062;-67
2022/01/30 02:56:42;;;;;;;22.75;3.25;;;;;;;;;;4783924;29;20477;-66
2022/01/30 02:59:08;;;;;;;19.88;3.35;;;;;;;;;;4784671;29;20055;-66
2022/01/30 03:01:34;;;;;;;17.67;3.38;;;;;;;;;;4784878;29;20104;-66
2022/01/30 03:04:00;;;;;;;21.73;4.03;;;;;;;;;;4784037;29;20047;-65
2022/01/30 03:06:27;;;;;;;17.85;3.00;;;;;;;;;;4769434;29;20051;-66
2022/01/30 03:08:53;;;;;;;21.30;3.90;;;;;;;;;;4783819;29;20039;-66
2022/01/30 03:11:20;;;;;;;25.58;4.20;;;;;;;;;;4784301;29;20050;-65
2022/01/30 03:13:46;;;;;;;21.58;3.13;;;;;;;;;;4784211;29;20721;-66
2022/01/30 03:16:12;;;;;;;24.35;3.97;;;;;;;;;;4768400;29;20519;-66
2022/01/30 03:18:38;;;;;;;15.35;2.83;;;;;;;;;;4785463;29;20039;-66
2022/01/30 03:21:04;;;;;;;20.10;3.30;;;;;;;;;;4782522;29;20055;-66
2022/01/30 03:23:31;;;;;;;19.02;3.05;;;;;;;;;;4783421;29;20371;-66
2022/01/30 03:25:59;;;;;;;20.27;3.28;;;;;;;;;;4784779;29;20043;-66
2022/01/30 03:28:25;;;;;;;12.77;2.83;;;;;;;;;;4786156;29;20051;-66
2022/01/30 03:30:55;;;;;;;20.98;3.00;;;;;;;;;;4783146;29;20047;-66
2022/01/30 03:33:22;;;;;;;19.38;3.80;;;;;;;;;;4784543;29;20051;-66
2022/01/30 03:35:48;;;;;;;15.25;3.10;;;;;;;;;;4785519;29;20484;-66
2022/01/30 03:38:15;;;;;;;19.42;3.72;;;;;;;;;;4783816;29;20477;-66
2022/01/30 03:40:43;;;;;;;17.75;3.28;;;;;;;;;;4783671;29;20051;-66
2022/01/30 03:43:09;;;;;;;19.50;3.47;;;;;;;;;;4784955;29;20516;-66
2022/01/30 03:45:36;;;;;;;23.65;3.92;;;;;;;;;;4785065;29;20051;-66
2022/01/30 03:48:02;;;;;;;22.02;3.58;;;;;;;;;;4785012;29;20038;-66
2022/01/30 03:50:28;;;;;;;23.20;4.07;;;;;;;;;;4782844;29;20055;-66
2022/01/30 03:52:54;;;;;;;22.20;3.75;;;;;;;;;;4785409;29;20051;-66
2022/01/30 03:55:21;;;;;;;19.33;3.30;;;;;;;;;;4785262;29;20071;-66
2022/01/30 03:57:47;;;;;;;32.42;4.45;;;;;;;;;;4785045;29;20381;-66
2022/01/30 04:00:13;;;;;;;25.00;4.80;;;;;;;;;;4784803;29;20039;-66
2022/01/30 04:02:40;;;;;;;25.02;4.32;;;;;;;;;;4783413;29;20059;-66
2022/01/30 04:05:06;;;;;;;27.85;4.60;;;;;;;;;;4785271;29;20058;-66
2022/01/30 04:07:32;;;;;;;30.42;4.53;;;;;;;;;;4784682;29;20050;-66
2022/01/30 04:09:58;;;;;;;41.88;5.68;;;;;;;;;;4784458;29;20047;-66
2022/01/30 04:12:25;;;;;;;29.85;5.03;;;;;;;;;;4784388;29;20513;-66
2022/01/30 04:14:51;;;;;;;27.00;4.80;;;;;;;;;;4783720;29;20489;-66
2022/01/30 04:17:19;;;;;;;33.95;5.50;;;;;;;;;;4785635;29;20055;-66
2022/01/30 04:19:45;;;;;;;30.10;5.25;;;;;;;;;;4783155;29;20097;-66
2022/01/30 04:22:11;;;;;;;32.00;5.65;;;;;;;;;;4783555;29;20051;-66
2022/01/30 04:24:38;;;;;;;30.73;5.50;;;;;;;;;;4784327;29;20054;-66
2022/01/30 04:27:04;;;;;;;32.20;5.10;;;;;;;;;;4784942;29;20511;-66
2022/01/30 04:29:30;;;;;;;32.60;5.47;;;;;;;;;;4783962;29;20035;-66
2022/01/30 04:31:56;;;;;;;36.72;6.07;;;;;;;;;;4782251;29;20059;-66
2022/01/30 04:34:23;;;;;;;29.48;5.85;;;;;;;;;;4782540;29;20151;-66
2022/01/30 04:37:11;;;;;;;29.23;4.88;;;;;;;;;;4784631;29;20058;-66
2022/01/30 05:01:06;;;;;;;30.88;6.18;;;;;;;;;;4782270;29;20634;-66
2022/01/30 05:06:08;;;;;;;27.08;5.63;;;;;;;;;;4784653;29;20054;-65
2022/01/30 05:08:35;;;;;;;29.98;5.00;;;;;;;;;;4782671;29;20059;-66
2022/01/30 05:11:04;;;;;;;40.00;5.90;;;;;;;;;;4784279;29;20071;-65
2022/01/30 05:13:33;;;;;;;30.98;5.95;;;;;;;;;;4784085;29;20104;-66
2022/01/30 05:15:59;;;;;;;30.75;5.95;;;;;;;;;;4782813;29;20095;-66
2022/01/30 05:18:26;;;;;;;26.13;4.57;;;;;;;;;;4784070;29;20055;-66
2022/01/30 05:20:52;;;;;;;28.90;5.38;;;;;;;;;;4784456;29;20052;-66
2022/01/30 05:23:18;;;;;;;27.63;6.65;;;;;;;;;;4783581;29;20043;-66
2022/01/30 05:25:48;;;;;;;23.20;5.10;;;;;;;;;;4783733;29;20066;-65
2022/01/30 05:28:18;;;;;;;32.25;5.25;;;;;;;;;;4783651;29;20053;-65
2022/01/30 05:30:46;;;;;;;25.80;4.60;;;;;;;;;;4784893;29;20473;-65
2022/01/30 05:33:13;;;;;;;34.78;5.20;;;;;;;;;;4786306;29;20169;-66
2022/01/30 05:35:39;;;;;;;25.42;5.18;;;;;;;;;;4786146;29;20075;-65
2022/01/30 05:38:05;;;;;;;36.00;5.88;;;;;;;;;;4785353;29;20346;-65
2022/01/30 05:40:32;;;;;;;30.58;5.47;;;;;;;;;;4786972;29;20698;-65
2022/01/30 05:42:59;;;;;;;35.33;5.97;;;;;;;;;;4786751;29;20096;-66
2022/01/30 05:45:31;;;;;;;32.53;5.85;;;;;;;;;;4786737;29;20493;-66
2022/01/30 05:48:02;;;;;;;42.92;6.63;;;;;;;;;;4785755;29;20497;-65
2022/01/30 05:50:28;;;;;;;34.08;5.57;;;;;;;;;;4786207;29;20062;-65
2022/01/30 05:52:55;;;;;;;40.28;6.28;;;;;;;;;;4787230;29;20058;-65
2022/01/30 05:55:21;;;;;;;29.60;5.88;;;;;;;;;;4786220;29;20069;-65
2022/01/30 05:57:47;;;;;;;45.33;6.60;;;;;;;;;;4786607;29;20532;-65
2022/01/30 06:00:15;;;;;;;33.63;5.90;;;;;;;;;;4786734;29;20078;-65
2022/01/30 06:02:44;;;;;;;33.30;6.25;;;;;;;;;;4786980;29;20101;-65
2022/01/30 06:05:11;;;;;;;35.47;6.22;;;;;;;;;;4786417;29;20043;-66
2022/01/30 06:07:46;;;;;;;40.83;5.75;;;;;;;;;;4784740;29;20054;-66
2022/01/30 06:10:13;;;;;;;44.17;6.85;;;;;;;;;;4786748;29;20054;-66
2022/01/30 06:12:39;;;;;;;32.03;6.15;;;;;;;;;;4785865;29;20043;-66
2022/01/30 06:15:05;;;;;;;31.25;6.15;;;;;;;;;;4786876;29;20135;-65
2022/01/30 06:17:31;;;;;;;41.72;5.90;;;;;;;;;;4786340;29;20039;-65
2022/01/30 06:19:57;;;;;;;37.58;6.22;;;;;;;;;;4786873;29;20134;-66
2022/01/30 06:22:23;;;;;;;22.35;4.90;;;;;;;;;;4786524;29;20043;-66
2022/01/30 06:24:49;;;;;;;35.17;6.45;;;;;;;;;;4785451;29;20094;-65
2022/01/30 06:27:15;;;;;;;39.40;6.95;;;;;;;;;;4784776;29;20125;-65
2022/01/30 06:29:41;;;;;;;37.38;6.22;;;;;;;;;;4785025;29;20126;-66
2022/01/30 06:32:07;;;;;;;30.35;5.85;;;;;;;;;;4785372;29;20090;-66
2022/01/30 06:34:33;;;;;;;37.03;5.80;;;;;;;;;;4786865;29;20051;-66
2022/01/30 06:37:00;;;;;;;37.47;6.53;;;;;;;;;;4786216;29;20059;-66
2022/01/30 06:39:26;;;;;;;32.83;5.57;;;;;;;;;;4785279;29;20051;-66
2022/01/30 06:41:53;;;;;;;34.97;5.90;;;;;;;;;;4783665;29;20055;-66
2022/01/30 06:44:19;;;;;;;35.60;5.97;;;;;;;;;;4784349;29;20107;-66
2022/01/30 06:46:45;;;;;;;44.78;6.57;;;;;;;;;;4785725;29;20043;-66
2022/01/30 06:49:11;;;;;;;37.72;6.30;;;;;;;;;;4786649;29;20054;-66
2022/01/30 06:51:37;;;;;;;34.33;5.70;;;;;;;;;;4784766;29;20046;-66
2022/01/30 06:54:03;;;;;;;31.05;5.68;;;;;;;;;;4785339;29;20126;-66
2022/01/30 06:56:29;;;;;;;40.65;5.70;;;;;;;;;;4786341;29;20380;-66
2022/01/30 06:58:56;;;;;;;34.28;5.80;;;;;;;;;;4785389;29;20504;-65
2022/01/30 07:01:23;;;;;;;32.58;5.95;;;;;;;;;;4784294;29;20047;-66
2022/01/30 07:03:49;;;;;;;30.42;5.75;;;;;;;;;;4769475;29;20059;-66
2022/01/30 07:06:16;;;;;;;35.88;6.18;;;;;;;;;;4785743;29;20101;-65
2022/01/30 07:08:42;;;;;;;33.38;6.25;;;;;;;;;;4785644;29;20096;-65
2022/01/30 07:11:08;;;;;;;31.95;5.03;;;;;;;;;;4784237;29;20051;-66
2022/01/30 07:13:34;;;;;;;40.28;7.10;;;;;;;;;;4785279;29;20659;-66
2022/01/30 07:16:00;;;;;;;34.45;6.85;;;;;;;;;;4785629;29;20104;-65
2022/01/30 07:18:26;;;;;;;30.00;5.53;;;;;;;;;;4784683;29;20445;-66
2022/01/30 07:20:52;;;;;;;42.00;6.03;;;;;;;;;;4786054;29;20116;-66
2022/01/30 07:23:18;;;;;;;40.03;6.20;;;;;;;;;;4785212;29;20116;-66
2022/01/30 07:25:44;;;;;;;38.45;6.82;;;;;;;;;;4784613;29;20125;-66
2022/01/30 07:28:11;;;;;;;45.58;6.65;;;;;;;;;;4784719;29;20035;-66
2022/01/30 07:30:37;;;;;;;34.30;6.43;;;;;;;;;;4784848;29;20350;-66
2022/01/30 07:33:06;;;;;;;34.75;6.22;;;;;;;;;;4784483;29;20059;-65
2022/01/30 07:35:38;;;;;;;41.97;5.75;;;;;;;;;;4784446;29;20051;-67
2022/01/30 07:38:05;;;;;;;42.75;6.40;;;;;;;;;;4785545;29;20055;-66
2022/01/30 07:40:34;;;;;;;33.22;6.50;;;;;;;;;;4784974;29;20054;-65
2022/01/30 07:43:00;;;;;;;39.05;6.93;;;;;;;;;;4784921;29;20056;-66
2022/01/30 07:45:26;;;;;;;28.52;5.30;;;;;;;;;;4785631;29;20043;-66
2022/01/30 07:47:53;;;;;;;32.85;6.07;;;;;;;;;;4782563;29;20581;-66
2022/01/30 07:50:19;;;;;;;34.88;6.65;;;;;;;;;;4784834;29;20047;-66
2022/01/30 07:52:45;;;;;;;36.13;6.22;;;;;;;;;;4782467;29;20055;-66
2022/01/30 07:55:11;;;;;;;36.95;7.05;;;;;;;;;;4784193;29;20051;-66
2022/01/30 07:57:37;;;;;;;35.72;5.38;;;;;;;;;;4783244;29;20051;-66
2022/01/30 08:00:04;;;;;;;36.35;6.70;;;;;;;;;;4782498;29;20043;-66
2022/01/30 08:02:30;;;;;;;38.45;6.43;;;;;;;;;;4784414;29;20051;-66
2022/01/30 08:04:56;;;;;;;41.33;6.95;;;;;;;;;;4783923;29;20432;-66
2022/01/30 08:07:23;;;;;;;42.08;7.65;;;;;;;;;;4782405;29;20429;-65
2022/01/30 08:09:49;;;;;;;34.65;6.97;;;;;;;;;;4783684;29;20047;-66
2022/01/30 08:12:16;;;;;;;36.70;7.10;;;;;;;;;;4782986;29;20047;-66
2022/01/30 08:14:42;;;;;;;36.90;6.20;;;;;;;;;;4784624;29;20115;-66
2022/01/30 08:17:08;;;;;;;34.92;7.55;;;;;;;;;;4782108;29;20058;-65
2022/01/30 08:19:35;;;;;;;44.13;7.18;;;;;;;;;;4784425;29;20055;-66
2022/01/30 08:22:02;;;;;;;40.17;7.18;;;;;;;;;;4785576;29;20076;-66
2022/01/30 08:24:28;;;;;;;38.97;7.65;;;;;;;;;;4783867;29;20062;-66
2022/01/30 08:26:54;;;;;;;43.50;7.00;;;;;;;;;;4785087;29;20039;-66
2022/01/30 08:29:20;;;;;;;34.95;6.78;;;;;;;;;;4784926;29;20047;-66
2022/01/30 08:31:47;;;;;;;34.13;6.13;;;;;;;;;;4783027;29;20063;-66
2022/01/30 08:34:13;;;;;;;35.10;7.18;;;;;;;;;;4783232;29;20693;-65
2022/01/30 08:36:39;;;;;;;40.38;6.80;;;;;;;;;;4783421;29;20065;-66
2022/01/30 08:39:05;;;;;;;40.42;6.50;;;;;;;;;;4782864;29;20062;-66
2022/01/30 08:41:31;;;;;;;39.80;7.18;;;;;;;;;;4782514;29;20118;-66
2022/01/30 08:43:57;;;;;;;39.33;7.32;;;;;;;;;;4782253;29;20043;-66
2022/01/30 08:46:23;;;;;;;38.60;7.50;;;;;;;;;;4781848;29;20055;-66
2022/01/30 08:48:49;;;;;;;50.80;7.85;;;;;;;;;;4784843;29;20126;-66
2022/01/30 08:51:15;;;;;;;31.52;6.72;;;;;;;;;;4784918;29;20047;-66
2022/01/30 08:53:41;;;;;;;37.97;7.10;;;;;;;;;;4783721;29;20039;-66
2022/01/30 08:56:07;;;;;;;35.42;6.75;;;;;;;;;;4783672;29;20058;-66
2022/01/30 08:58:33;;;;;;;46.20;7.53;;;;;;;;;;4784337;29;20462;-66
2022/01/30 09:01:00;;;;;;;39.63;7.13;;;;;;;;;;4784189;29;20051;-66
2022/01/30 09:03:26;;;;;;;37.53;6.68;;;;;;;;;;4782864;29;20047;-66
2022/01/30 09:05:52;;;;;;;42.75;8.05;;;;;;;;;;4782135;29;20507;-67
2022/01/30 09:08:18;;;;;;;31.90;6.82;;;;;;;;;;4784288;29;20643;-66
2022/01/30 09:10:44;;;;;;;43.00;7.00;;;;;;;;;;4782691;29;20051;-66
2022/01/30 09:13:10;;;;;;;42.78;8.35;;;;;;;;;;4782936;29;20035;-66
2022/01/30 09:15:41;;;;;;;42.92;6.97;;;;;;;;;;4782484;29;20051;-66
2022/01/30 09:18:09;;;;;;;45.88;7.60;;;;;;;;;;4783823;29;20118;-66
2022/01/30 09:20:39;;;;;;;40.58;6.32;;;;;;;;;;4781930;29;20051;-65
2022/01/30 09:23:06;;;;;;;29.20;6.35;;;;;;;;;;4783702;29;20047;-66
2022/01/30 09:25:32;;;;;;;25.73;5.47;;;;;;;;;;4782675;29;20119;-65
2022/01/30 09:27:58;;;;;;;31.30;6.43;;;;;;;;;;4782736;29;20077;-66
2022/01/30 09:30:24;;;;;;;30.77;6.50;;;;;;;;;;4782427;29;20043;-66
2022/01/30 09:32:50;;;;;;;37.20;5.82;;;;;;;;;;4795608;29;20091;-66
2022/01/30 09:35:16;;;;;;;31.30;6.13;;;;;;;;;;4782882;29;20101;-66
2022/01/30 09:37:43;;;;;;;38.80;6.50;;;;;;;;;;4782777;29;20116;-66
2022/01/30 09:40:09;;;;;;;37.85;6.78;;;;;;;;;;4781669;29;20075;-66
2022/01/30 09:42:35;;;;;;;38.45;6.65;;;;;;;;;;4782064;29;20055;-66
2022/01/30 09:45:04;;;;;;;29.42;6.35;;;;;;;;;;4782720;29;20063;-66
2022/01/30 09:47:30;;;;;;;34.10;6.40;;;;;;;;;;4781951;29;20047;-66
2022/01/30 09:49:57;;;;;;;25.02;5.45;;;;;;;;;;4781138;29;20521;-66
2022/01/30 09:52:23;;;;;;;38.28;6.28;;;;;;;;;;4782779;29;20046;-66
2022/01/30 09:54:49;;;;;;;35.88;6.65;;;;;;;;;;4781737;29;20061;-66
2022/01/30 09:57:16;;;;;;;31.08;6.28;;;;;;;;;;4782977;29;20527;-66
2022/01/30 09:59:42;;;;;;;31.08;6.30;;;;;;;;;;4784062;29;20047;-66
2022/01/30 10:02:09;;;;;;;31.23;5.80;;;;;;;;;;4783280;29;20096;-66
2022/01/30 10:04:35;;;;;;;36.90;6.32;;;;;;;;;;4782251;29;20447;-66
2022/01/30 10:07:07;;;;;;;32.38;5.38;;;;;;;;;;4783826;29;20039;-66
2022/01/30 10:09:36;;;;;;;31.23;6.13;;;;;;;;;;4783215;29;20043;-66
2022/01/30 10:12:14;;;;;;;36.28;6.03;;;;;;;;;;4780936;29;20124;-66
2022/01/30 10:14:49;;;;;;;39.05;6.40;;;;;;;;;;4781364;29;20390;-66
2022/01/30 10:17:33;;;;;;;39.72;7.25;;;;;;;;;;4783882;29;20077;-66
2022/01/30 10:20:08;;;;;;;42.88;6.72;;;;;;;;;;4785326;29;20058;-66
2022/01/30 10:22:36;;;;;;;39.88;7.07;;;;;;;;;;4784510;29;20035;-66
2022/01/30 10:25:02;;;;;;;41.25;6.55;;;;;;;;;;4785675;29;20107;-66
2022/01/30 10:27:29;;;;;;;40.65;6.75;;;;;;;;;;4786506;29;20116;-66
2022/01/30 10:29:57;;;;;;;42.40;6.78;;;;;;;;;;4785635;29;20879;-66
2022/01/30 10:32:23;;;;;;;37.00;6.57;;;;;;;;;;4783880;29;20089;-65
2022/01/30 10:35:16;;;;;;;36.58;6.65;;;;;;;;;;4785122;29;20047;-66
2022/01/30 10:37:43;;;;;;;36.38;6.55;;;;;;;;;;4783955;29;20146;-65
2022/01/30 10:40:19;;;;;;;36.72;6.47;;;;;;;;;;4785199;29;20047;-65
2022/01/30 10:42:46;;;;;;;45.25;7.15;;;;;;;;;;4785077;29;20039;-66
2022/01/30 10:45:12;;;;;;;42.20;8.02;;;;;;;;;;4785428;29;20051;-65
2022/01/30 10:47:39;;;;;;;44.95;7.60;;;;;;;;;;4785586;29;20051;-66
2022/01/30 10:50:25;;;;;;;33.80;6.50;;;;;;;;;;4784326;29;20381;-65
2022/01/30 10:52:56;;;;;;;31.08;6.10;;;;;;;;;;4786551;29;20069;-65
2022/01/30 10:55:33;;;;;;;37.83;6.85;;;;;;;;;;4783707;29;20374;-65
2022/01/30 10:58:01;;;;;;;40.17;7.40;;;;;;;;;;4785729;29;20499;-65
2022/01/30 11:00:38;;;;;;;36.13;6.22;;;;;;;;;;4782331;29;20220;-65
2022/01/30 11:03:04;;;;;;;38.63;6.13;;;;;;;;;;4785118;29;20093;-65
2022/01/30 11:05:32;;;;;;;32.13;7.20;;;;;;;;;;4783946;29;20569;-65
2022/01/30 11:07:58;;;;;;;32.70;6.22;;;;;;;;;;4785014;29;20039;-65
2022/01/30 11:10:26;;;;;;;30.25;5.97;;;;;;;;;;4785122;29;20537;-64
2022/01/30 11:13:08;;;;;;;38.75;6.75;;;;;;;;;;4783410;29;20054;-65
2022/01/30 11:15:43;;;;;;;34.65;6.05;;;;;;;;;;4785169;29;20467;-64
2022/01/30 11:18:12;;;;;;;30.80;6.35;;;;;;;;;;4784255;29;20048;-65
2022/01/30 11:20:38;;;;;;;34.85;6.40;;;;;;;;;;4783425;29;20092;-65
2022/01/30 11:23:04;;;;;;;33.70;6.10;;;;;;;;;;4784896;29;20096;-65
2022/01/30 11:25:35;;;;;;;30.17;6.07;;;;;;;;;;4782834;29;20134;-66
2022/01/30 11:28:05;;;;;;;28.77;5.95;;;;;;;;;;4783951;29;20063;-66
2022/01/30 11:30:32;;;;;;;35.97;7.35;;;;;;;;;;4783197;29;20067;-66
2022/01/30 11:32:58;;;;;;;35.30;6.03;;;;;;;;;;4785615;29;20059;-66
2022/01/30 11:35:24;;;;;;;38.55;7.10;;;;;;;;;;4783934;29;20111;-66
2022/01/30 11:37:51;;;;;;;28.27;6.45;;;;;;;;;;4783527;29;20051;-65
2022/01/30 11:40:18;;;;;;;34.95;5.78;;;;;;;;;;4784778;29;20039;-66
2022/01/30 11:42:45;;;;;;;32.28;6.30;;;;;;;;;;4783934;29;20053;-66
2022/01/30 11:45:31;;;;;;;33.00;6.03;;;;;;;;;;4785517;29;20061;-66
2022/01/30 11:48:03;;;;;;;;;;;;;;;;;;4786389;29;20054;-66
2022/01/30 11:50:33;;;;;;;31.05;5.65;;;;;;;;;;4785186;29;19925;-66
2022/01/30 11:53:02;;;;;;;37.75;5.53;;;;;;;;;;4784316;29;20075;-66
2022/01/30 11:55:48;;;;;;;34.65;6.30;;;;;;;;;;4780675;29;20078;-66
2022/01/30 11:58:32;;;;;;;35.47;5.87;;;;;;;;;;4781877;29;20568;-66
2022/01/30 12:01:00;;;;;;;32.38;6.20;;;;;;;;;;4781969;29;20075;-66
2022/01/30 12:03:27;;;;;;;32.67;6.03;;;;;;;;;;4783433;29;20238;-66
2022/01/30 12:05:54;;;;;;;36.65;5.88;;;;;;;;;;4780747;29;20047;-66
2022/01/30 12:08:38;;;;;;;27.95;6.00;;;;;;;;;;4782379;29;20040;-66
2022/01/30 12:11:04;;;;;;;30.42;6.15;;;;;;;;;;4781862;29;20146;-66
2022/01/30 12:13:44;;;;;;;35.97;6.63;;;;;;;;;;4784529;29;20078;-66
2022/01/30 12:16:30;;;;;;;27.95;5.00;;;;;;;;;;4783243;29;20048;-66
2022/01/30 12:18:56;;;;;;;23.42;4.40;;;;;;;;;;4783718;29;20112;-66
2022/01/30 12:21:26;;;;;;;37.15;5.80;;;;;;;;;;4780819;29;20043;-66
2022/01/30 12:23:52;;;;;;;34.70;6.47;;;;;;;;;;4783581;29;20039;-66
2022/01/30 12:26:19;;;;;;;31.92;5.45;;;;;;;;;;4780699;29;20146;-66
2022/01/30 12:28:49;;;;;;;37.00;6.03;;;;;;;;;;4781874;29;20063;-65
2022/01/30 12:31:24;;;;;;;35.80;5.82;;;;;;;;;;4781081;29;20051;-66
2022/01/30 12:33:58;;;;;;;35.03;6.63;;;;;;;;;;4783253;29;20063;-66
2022/01/30 12:36:24;;;;;;;30.70;5.05;;;;;;;;;;4781790;29;20313;-66
2022/01/30 12:38:55;;;;;;;23.92;5.70;;;;;;;;;;4781537;29;20054;-66
2022/01/30 12:41:21;;;;;;;25.08;5.82;;;;;;;;;;4781285;29;20513;-66
2022/01/30 12:43:55;;;;;;;31.20;5.22;;;;;;;;;;4782402;29;20626;-66
2022/01/30 12:46:23;;;;;;;26.60;6.03;;;;;;;;;;4780974;29;20059;-66
2022/01/30 12:49:03;;;;;;;34.28;6.75;;;;;;;;;;4783341;29;20047;-65
2022/01/30 12:51:29;;;;;;;33.00;6.45;;;;;;;;;;4778829;29;20062;-66
2022/01/30 12:53:56;;;;;;;25.58;5.15;;;;;;;;;;4782622;29;20050;-66
2022/01/30 12:56:23;;;;;;;37.03;6.43;;;;;;;;;;4780812;29;20108;-66
2022/01/30 12:58:50;;;;;;;25.20;5.68;;;;;;;;;;4782017;29;20050;-66
2022/01/30 13:01:16;;;;;;;32.35;6.30;;;;;;;;;;4779186;29;20822;-66
2022/01/30 13:03:43;;;;;;;29.20;5.50;;;;;;;;;;4780909;29;20103;-66
2022/01/30 13:06:09;;;;;;;36.63;6.30;;;;;;;;;;4781285;29;20059;-66
2022/01/30 13:08:45;;;;;;;30.95;5.63;;;;;;;;;;4780280;29;20126;-66
2022/01/30 13:11:18;;;;;;;30.25;5.70;;;;;;;;;;4779799;29;20051;-66
2022/01/30 13:13:57;;;;;;;29.80;6.70;;;;;;;;;;4780462;29;20063;-66
2022/01/30 13:16:24;;;;;;;34.95;6.55;;;;;;;;;;4779655;29;20123;-66
2022/01/30 13:18:50;;;;;;;31.50;6.05;;;;;;;;;;4781905;29;20061;-66
2022/01/30 13:21:22;;;;;;;40.08;6.32;;;;;;;;;;4781958;29;20454;-66
2022/01/30 13:23:48;;;;;;;29.02;5.97;;;;;;;;;;4782521;29;20544;-66
2022/01/30 13:26:27;;;;;;;30.08;6.57;;;;;;;;;;4779549;29;20126;-66
2022/01/30 13:28:53;;;;;;;42.30;7.28;;;;;;;;;;4777989;29;20170;-66
2022/01/30 13:31:20;;;;;;;36.53;6.85;;;;;;;;;;4779340;29;20051;-66
2022/01/30 13:33:46;;;;;;;38.50;6.15;;;;;;;;;;4780884;29;20112;-66
2022/01/30 13:36:25;;;;;;;30.35;5.80;;;;;;;;;;4779392;29;20047;-66
2022/01/30 13:38:51;;;;;;;38.72;6.18;;;;;;;;;;4780230;29;20063;-66
2022/01/30 13:41:26;;;;;;;38.17;6.90;;;;;;;;;;4781213;29;20054;-66
2022/01/30 13:43:57;;;;;;;39.42;6.70;;;;;;;;;;4781718;29;20051;-66
2022/01/30 13:49:11;;;;;;;33.25;6.82;;;;;;;;;;4781534;29;20049;-66
2022/01/30 13:51:37;;;;;;;34.72;6.50;;;;;;;;;;4780383;29;20070;-66
2022/01/30 13:54:04;;;;;;;39.72;7.55;;;;;;;;;;4783491;29;20059;-66
2022/01/30 13:56:30;;;;;;;38.22;6.47;;;;;;;;;;4784004;29;20049;-66
2022/01/30 13:58:56;;;;;;;29.05;6.05;;;;;;;;;;4780395;29;20517;-66
2022/01/30 14:01:30;;;;;;;30.55;5.50;;;;;;;;;;4783341;29;21105;-66
2022/01/30 14:04:09;;;;;;;34.58;5.50;;;;;;;;;;4785452;29;20051;-66
2022/01/30 14:06:36;;;;;;;39.33;5.90;;;;;;;;;;4784795;29;20501;-66
2022/01/30 14:09:12;;;;;;;34.92;5.82;;;;;;;;;;4781515;29;20585;-66
2022/01/30 14:11:38;;;;;;;27.60;5.38;;;;;;;;;;4783622;29;20176;-66
2022/01/30 14:14:06;;;;;;;25.73;5.25;;;;;;;;;;4784436;29;20050;-66
2022/01/30 14:16:59;;;;;;;27.55;5.68;;;;;;;;;;4785168;29;20420;-66
2022/01/30 14:20:01;;;;;;;30.65;5.45;;;;;;;;;;4779744;29;20047;-66
2022/01/30 14:22:26;;;;;;;31.60;5.13;;;;;;;;;;4781821;29;20493;-66
2022/01/30 14:24:57;;;;;;;32.17;5.97;;;;;;;;;;4782973;29;20469;-66
2022/01/30 14:27:24;;;;;;;31.23;5.55;;;;;;;;;;4782284;29;20051;-66
2022/01/30 14:29:54;;;;;;;30.85;5.70;;;;;;;;;;4779771;29;20378;-66
2022/01/30 14:32:21;;;;;;;30.27;6.25;;;;;;;;;;4781754;29;20144;-66
2022/01/30 14:34:48;;;;;;;34.45;6.13;;;;;;;;;;4783555;29;20047;-66
2022/01/30 14:37:14;;;;;;;33.50;5.97;;;;;;;;;;4782521;29;20059;-66
2022/01/30 14:39:41;;;;;;;32.97;5.47;;;;;;;;;;4781321;29;20039;-66
2022/01/30 14:42:12;;;;;;;25.40;5.78;;;;;;;;;;4782653;29;20111;-66
2022/01/30 14:44:39;;;;;;;25.15;5.57;;;;;;;;;;4781876;29;20059;-66
2022/01/30 14:47:06;;;;;;;27.75;5.55;;;;;;;;;;4783673;29;20059;-66
2022/01/30 14:49:32;;;;;;;37.50;6.03;;;;;;;;;;4781627;29;20039;-66
2022/01/30 14:51:58;;;;;;;35.20;6.28;;;;;;;;;;4782660;29;20055;-66
2022/01/30 14:54:24;;;;;;;30.35;5.97;;;;;;;;;;4779668;29;20083;-66
2022/01/30 14:56:50;;;;;;;32.55;6.18;;;;;;;;;;4779597;29;20059;-66
2022/01/30 14:59:18;;;;;;;36.33;6.30;;;;;;;;;;4780825;29;20055;-66
2022/01/30 15:01:44;;;;;;;25.35;5.55;;;;;;;;;;4778720;29;20517;-66
2022/01/30 15:04:10;;;;;;;31.75;5.75;;;;;;;;;;4780246;29;20573;-66
2022/01/30 15:06:36;;;;;;;37.58;6.43;;;;;;;;;;4781340;29;20055;-66
2022/01/30 15:09:04;;;;;;;35.65;6.00;;;;;;;;;;4780283;29;20047;-66
2022/01/30 15:11:30;;;;;;;30.45;6.28;;;;;;;;;;4779013;29;20781;-66
2022/01/30 15:13:56;;;;;;;43.58;6.57;;;;;;;;;;4783436;29;20117;-66
2022/01/30 15:16:30;;;;;;;28.90;5.72;;;;;;;;;;4784685;29;20145;-66
2022/01/30 15:18:56;;;;;;;39.33;6.47;;;;;;;;;;4781697;29;20063;-66
2022/01/30 15:21:22;;;;;;;37.05;6.47;;;;;;;;;;4779247;29;20547;-66
2022/01/30 15:23:49;;;;;;;36.22;6.10;;;;;;;;;;4780076;29;20050;-66
2022/01/30 15:26:15;;;;;;;43.33;6.85;;;;;;;;;;4780158;29;20405;-66
2022/01/30 15:28:41;;;;;;;38.75;5.32;;;;;;;;;;4776926;29;20142;-66
2022/01/30 15:31:07;;;;;;;34.28;6.28;;;;;;;;;;4778634;29;20058;-66
2022/01/30 15:33:33;;;;;;;32.40;5.97;;;;;;;;;;4783421;29;20074;-66
2022/01/30 15:36:00;;;;;;;33.03;6.10;;;;;;;;;;4782428;29;20393;-66
2022/01/30 15:38:27;;;;;;;36.15;6.50;;;;;;;;;;4779626;29;20056;-66